createdAt,value
2018-06-11T00:01:23.275Z,23.20
2018-06-11T00:03:51.418Z,23.20
2018-06-11T00:06:19.573Z,23.10
2018-06-11T00:08:47.724Z,23.20
2018-06-11T00:11:15.859Z,23.40
2018-06-11T00:13:44.004Z,23.30
2018-06-11T00:16:12.132Z,23.40
2018-06-11T00:18:40.287Z,23.40
2018-06-11T00:21:08.421Z,23.50
2018-06-11T00:23:36.588Z,23.30
2018-06-11T00:26:04.742Z,23.30
2018-06-11T00:28:32.897Z,22.90
2018-06-11T00:31:01.028Z,23.00
2018-06-11T00:33:29.175Z,23.00
2018-06-11T00:35:57.301Z,22.90
2018-06-11T00:38:25.431Z,23.00
2018-06-11T00:40:53.571Z,23.20
2018-06-11T00:43:21.747Z,23.30
2018-06-11T00:45:49.872Z,23.30
2018-06-11T00:48:18.516Z,23.30
2018-06-11T00:50:46.651Z,23.50
2018-06-11T00:53:14.785Z,23.40
2018-06-11T00:55:54.232Z,23.30
2018-06-11T00:58:22.370Z,23.20
2018-06-11T01:00:50.494Z,23.00
2018-06-11T01:03:18.676Z,22.90
2018-06-11T01:05:46.780Z,23.10
2018-06-11T01:13:10.595Z,22.70
2018-06-11T01:15:38.678Z,22.60
2018-06-11T01:18:06.767Z,22.50
2018-06-11T01:20:34.876Z,22.50
2018-06-11T01:23:02.952Z,22.20
2018-06-11T01:25:31.048Z,22.20
2018-06-11T01:27:59.156Z,22.40
2018-06-11T01:30:27.251Z,22.10
2018-06-11T01:32:55.414Z,22.10
2018-06-11T01:35:23.507Z,21.90
2018-06-11T01:37:51.604Z,21.90
2018-06-11T01:45:15.521Z,22.10
2018-06-11T01:47:43.655Z,21.90
2018-06-11T01:50:11.828Z,21.90
2018-06-11T01:52:39.951Z,21.90
2018-06-11T01:55:08.093Z,22.00
2018-06-11T01:57:36.629Z,21.70
2018-06-11T02:00:05.592Z,21.80
2018-06-11T02:02:33.716Z,21.90
2018-06-11T02:05:01.851Z,22.00
2018-06-11T02:07:30.024Z,21.90
2018-06-11T02:09:58.155Z,21.70
2018-06-11T02:12:26.282Z,21.90
2018-06-11T02:14:54.416Z,21.80
2018-06-11T02:17:22.960Z,21.90
2018-06-11T02:19:51.081Z,21.90
2018-06-11T02:24:47.095Z,22.00
2018-06-11T02:27:15.244Z,22.00
2018-06-11T02:29:43.367Z,22.00
2018-06-11T02:32:11.516Z,22.00
2018-06-11T02:34:39.642Z,21.90
2018-06-11T02:37:07.786Z,21.80
2018-06-11T02:39:35.904Z,22.00
2018-06-11T02:42:04.049Z,22.00
2018-06-11T02:44:32.179Z,22.10
2018-06-11T02:47:00.264Z,22.00
2018-06-11T02:49:28.365Z,22.00
2018-06-11T02:51:56.466Z,21.90
2018-06-11T02:54:24.611Z,22.00
2018-06-11T02:56:52.723Z,21.80
2018-06-11T02:59:20.800Z,21.80
2018-06-11T03:01:48.904Z,22.10
2018-06-11T03:04:17.065Z,22.20
2018-06-11T03:06:45.216Z,22.20
2018-06-11T03:09:13.323Z,22.10
2018-06-11T03:11:41.408Z,22.20
2018-06-11T03:14:09.507Z,22.00
2018-06-11T03:16:38.512Z,21.80
2018-06-11T03:19:06.600Z,21.90
2018-06-11T03:21:34.773Z,21.70
2018-06-11T03:24:02.862Z,21.70
2018-06-11T03:26:31.022Z,21.70
2018-06-11T03:28:59.098Z,21.70
2018-06-11T03:31:27.265Z,21.90
2018-06-11T03:33:55.460Z,22.00
2018-06-11T03:36:23.554Z,22.10
2018-06-11T03:38:51.643Z,22.10
2018-06-11T03:41:19.747Z,22.00
2018-06-11T03:43:47.856Z,22.00
2018-06-11T03:46:15.939Z,22.00
2018-06-11T03:48:44.030Z,22.10
2018-06-11T03:51:12.123Z,22.00
2018-06-11T03:53:40.206Z,22.10
2018-06-11T03:56:08.284Z,22.10
2018-06-11T03:58:36.369Z,22.20
2018-06-11T04:01:04.464Z,22.00
2018-06-11T04:03:32.552Z,22.10
2018-06-11T04:06:00.724Z,22.30
2018-06-11T04:08:28.851Z,22.30
2018-06-11T04:13:24.861Z,22.00
2018-06-11T04:15:52.997Z,21.90
2018-06-11T04:18:21.084Z,22.20
2018-06-11T04:20:49.168Z,22.30
2018-06-11T04:23:17.307Z,22.20
2018-06-11T04:25:45.399Z,22.40
2018-06-11T04:28:13.521Z,22.50
2018-06-11T04:30:41.595Z,22.50
2018-06-11T04:33:09.675Z,22.20
2018-06-11T04:38:06.612Z,22.70
2018-06-11T04:40:34.700Z,22.70
2018-06-11T04:43:03.334Z,22.30
2018-06-11T04:45:31.523Z,22.40
2018-06-11T04:47:59.669Z,22.60
2018-06-11T04:50:28.458Z,22.40
2018-06-11T04:52:56.805Z,22.30
2018-06-11T04:55:24.925Z,22.20
2018-06-11T04:57:53.073Z,22.30
2018-06-11T05:00:21.179Z,22.40
2018-06-11T05:02:49.320Z,22.20
2018-06-11T05:05:17.463Z,22.20
2018-06-11T05:07:45.595Z,22.30
2018-06-11T05:10:13.736Z,22.40
2018-06-11T05:12:41.864Z,22.60
2018-06-11T05:15:09.986Z,22.40
2018-06-11T05:17:38.878Z,22.40
2018-06-11T05:20:07.022Z,22.20
2018-06-11T05:22:35.153Z,22.30
2018-06-11T05:25:03.300Z,22.30
2018-06-11T05:27:31.442Z,22.40
2018-06-11T05:32:27.488Z,22.90
2018-06-11T05:34:55.683Z,22.80
2018-06-11T05:37:23.768Z,22.90
2018-06-11T05:39:51.925Z,23.00
2018-06-11T05:42:20.016Z,23.00
2018-06-11T05:44:48.108Z,23.00
2018-06-11T05:47:16.210Z,23.00
2018-06-11T05:49:44.312Z,23.00
2018-06-11T05:52:12.400Z,22.90
2018-06-11T05:54:40.511Z,22.90
2018-06-11T05:57:08.608Z,23.10
2018-06-11T05:59:36.820Z,23.10
2018-06-11T06:02:04.894Z,22.90
2018-06-11T06:04:33.067Z,22.70
2018-06-11T06:07:01.160Z,22.60
2018-06-11T06:09:29.247Z,22.80
2018-06-11T06:11:57.347Z,23.00
2018-06-11T06:16:53.361Z,22.80
2018-06-11T06:19:21.459Z,22.80
2018-06-11T06:21:49.531Z,23.10
2018-06-11T06:24:17.629Z,23.20
2018-06-11T06:26:45.831Z,23.30
2018-06-11T06:29:13.864Z,23.40
2018-06-11T06:31:41.965Z,23.60
2018-06-11T06:34:10.120Z,23.70
2018-06-11T06:36:39.068Z,24.00
2018-06-11T06:39:08.525Z,24.00
2018-06-11T06:41:36.908Z,24.20
2018-06-11T06:44:05.066Z,24.10
2018-06-11T06:46:33.166Z,24.20
2018-06-11T06:49:01.237Z,24.10
2018-06-11T06:51:29.332Z,24.10
2018-06-11T06:53:57.426Z,23.90
2018-06-11T06:56:26.025Z,23.80
2018-06-11T06:58:54.156Z,24.00
2018-06-11T07:01:22.239Z,24.10
2018-06-11T07:03:50.332Z,24.30
2018-06-11T07:06:18.428Z,24.30
2018-06-11T07:08:46.505Z,24.40
2018-06-11T07:11:14.608Z,24.40
2018-06-11T07:13:42.721Z,24.30
2018-06-11T07:16:10.829Z,24.60
2018-06-11T07:21:06.974Z,25.00
2018-06-11T07:23:35.067Z,25.20
2018-06-11T07:26:03.198Z,25.40
2018-06-11T07:28:31.297Z,25.50
2018-06-11T07:30:59.376Z,25.40
2018-06-11T07:33:27.482Z,25.50
2018-06-11T07:35:55.569Z,25.60
2018-06-11T07:38:23.675Z,25.40
2018-06-11T07:40:51.764Z,26.00
2018-06-11T07:43:19.903Z,26.50
2018-06-11T07:45:48.030Z,26.70
2018-06-11T07:48:16.176Z,26.70
2018-06-11T07:50:44.302Z,26.90
2018-06-11T07:53:12.436Z,27.00
2018-06-11T07:55:40.562Z,26.90
2018-06-11T07:58:08.701Z,26.90
2018-06-11T08:00:36.897Z,26.80
2018-06-11T08:03:06.275Z,26.90
2018-06-11T08:05:35.087Z,26.70
2018-06-11T08:08:03.539Z,26.60
2018-06-11T08:10:33.933Z,26.60
2018-06-11T08:13:02.065Z,26.90
2018-06-11T08:15:30.428Z,26.70
2018-06-11T08:17:58.644Z,26.60
2018-06-11T08:20:26.976Z,27.30
2018-06-11T08:23:03.963Z,29.10
2018-06-11T08:25:32.058Z,29.50
2018-06-11T08:28:21.723Z,29.00
2018-06-11T08:30:50.271Z,29.30
2018-06-11T08:33:20.536Z,29.90
2018-06-11T08:35:48.643Z,30.00
2018-06-11T08:38:17.066Z,30.60
2018-06-11T08:40:45.209Z,32.10
2018-06-11T08:43:13.444Z,32.60
2018-06-11T08:45:41.497Z,32.90
2018-06-11T08:48:09.697Z,33.00
2018-06-11T08:50:37.819Z,33.30
2018-06-11T08:53:06.320Z,33.60
2018-06-11T08:55:35.211Z,33.70
2018-06-11T08:58:03.340Z,33.40
2018-06-11T09:00:31.452Z,34.10
2018-06-11T09:02:59.579Z,33.50
2018-06-11T09:05:27.725Z,33.90
2018-06-11T09:07:55.827Z,34.70
2018-06-11T09:10:23.967Z,35.20
2018-06-11T09:12:52.084Z,35.00
2018-06-11T09:15:20.229Z,34.40
2018-06-11T09:17:48.347Z,34.20
2018-06-11T09:20:16.485Z,34.20
2018-06-11T09:22:44.639Z,34.30
2018-06-11T09:25:13.432Z,34.70
2018-06-11T09:27:41.558Z,35.70
2018-06-11T09:30:09.716Z,36.00
2018-06-11T09:35:06.663Z,36.60
2018-06-11T09:37:35.096Z,36.00
2018-06-11T09:40:03.214Z,35.10
2018-06-11T09:42:31.327Z,34.40
2018-06-11T09:44:59.403Z,34.10
2018-06-11T09:47:28.290Z,33.90
2018-06-11T09:49:56.436Z,33.80
2018-06-11T09:54:52.491Z,34.50
2018-06-11T09:57:20.585Z,34.80
2018-06-11T09:59:48.655Z,35.10
2018-06-11T10:02:16.775Z,35.20
2018-06-11T10:04:44.863Z,34.70
2018-06-11T10:07:12.953Z,34.20
2018-06-11T10:09:41.043Z,34.50
2018-06-11T10:12:09.159Z,35.20
2018-06-11T10:14:37.644Z,35.90
2018-06-11T10:17:05.736Z,36.80
2018-06-11T10:19:33.865Z,37.50
2018-06-11T10:22:01.952Z,38.00
2018-06-11T10:24:30.052Z,37.50
2018-06-11T10:26:58.144Z,37.20
2018-06-11T10:29:26.228Z,37.30
2018-06-11T10:31:54.319Z,37.00
2018-06-11T10:34:22.507Z,37.50
2018-06-11T10:36:50.675Z,38.10
2018-06-11T10:39:18.744Z,38.40
2018-06-11T10:41:46.812Z,38.90
2018-06-11T10:44:14.958Z,40.40
2018-06-11T10:46:43.083Z,40.60
2018-06-11T10:49:11.233Z,41.20
2018-06-11T10:51:39.624Z,42.00
2018-06-11T10:54:07.736Z,42.00
2018-06-11T10:56:35.867Z,41.30
2018-06-11T10:59:04.010Z,41.30
2018-06-11T11:04:00.084Z,41.80
2018-06-11T11:06:28.196Z,41.60
2018-06-11T11:08:56.343Z,41.20
2018-06-11T11:11:25.009Z,39.90
2018-06-11T11:13:53.143Z,38.60
2018-06-11T11:16:21.291Z,37.10
2018-06-11T11:18:49.434Z,36.20
2018-06-11T11:21:17.603Z,35.70
2018-06-11T11:23:45.739Z,35.40
2018-06-11T11:26:13.906Z,35.00
2018-06-11T11:28:42.052Z,34.80
2018-06-11T11:31:10.190Z,34.70
2018-06-11T11:33:38.335Z,34.70
2018-06-11T11:36:06.479Z,34.80
2018-06-11T11:38:34.597Z,34.80
2018-06-11T11:41:02.723Z,34.70
2018-06-11T11:43:30.873Z,34.70
2018-06-11T11:45:59.013Z,34.50
2018-06-11T11:48:27.125Z,34.40
2018-06-11T11:50:55.243Z,34.30
2018-06-11T11:53:23.379Z,34.10
2018-06-11T11:55:51.549Z,33.80
2018-06-11T11:58:20.116Z,33.80
2018-06-11T12:00:48.986Z,34.00
2018-06-11T12:03:17.547Z,34.10
2018-06-11T12:05:45.675Z,34.10
2018-06-11T12:08:13.816Z,34.40
2018-06-11T12:10:41.943Z,34.70
2018-06-11T12:13:10.183Z,34.90
2018-06-11T12:15:39.500Z,34.90
2018-06-11T12:18:07.663Z,34.90
2018-06-11T12:20:36.470Z,34.80
2018-06-11T12:23:04.583Z,34.60
2018-06-11T12:25:32.703Z,34.60
2018-06-11T12:28:00.956Z,34.40
2018-06-11T12:30:29.096Z,34.40
2018-06-11T12:32:57.222Z,34.30
2018-06-11T12:35:25.339Z,34.40
2018-06-11T12:37:53.467Z,34.70
2018-06-11T12:40:21.623Z,34.50
2018-06-11T12:42:49.711Z,34.60
2018-06-11T12:47:45.728Z,34.50
2018-06-11T12:52:41.790Z,34.40
2018-06-11T12:55:09.866Z,34.60
2018-06-11T12:57:37.963Z,34.60
2018-06-11T13:00:06.157Z,34.30
2018-06-11T13:02:34.358Z,34.30
2018-06-11T13:05:02.441Z,34.20
2018-06-11T13:07:30.532Z,34.50
2018-06-11T13:09:58.628Z,34.60
2018-06-11T13:12:26.712Z,34.60
2018-06-11T13:14:54.798Z,34.60
2018-06-11T13:17:22.897Z,34.40
2018-06-11T13:19:50.963Z,34.40
2018-06-11T13:22:19.961Z,34.50
2018-06-11T13:24:48.075Z,34.70
2018-06-11T13:27:16.176Z,34.70
2018-06-11T13:29:44.260Z,34.60
2018-06-11T13:32:12.338Z,34.70
2018-06-11T13:34:40.479Z,34.70
2018-06-11T13:37:08.561Z,34.70
2018-06-11T13:39:36.635Z,34.40
2018-06-11T13:42:04.737Z,34.40
2018-06-11T13:44:32.843Z,34.30
2018-06-11T13:47:00.921Z,34.10
2018-06-11T13:49:29.012Z,33.80
2018-06-11T13:51:57.105Z,33.50
2018-06-11T13:54:25.270Z,33.60
2018-06-11T13:56:53.389Z,33.70
2018-06-11T13:59:21.427Z,33.70
2018-06-11T14:01:49.520Z,33.80
2018-06-11T14:04:17.621Z,33.80
2018-06-11T14:06:45.738Z,33.70
2018-06-11T14:09:13.831Z,33.70
2018-06-11T14:11:41.918Z,33.50
2018-06-11T14:14:10.009Z,33.40
2018-06-11T14:19:05.968Z,33.40
2018-06-11T14:21:34.050Z,33.20
2018-06-11T14:24:02.140Z,33.00
2018-06-11T14:26:30.228Z,33.10
2018-06-11T14:28:58.349Z,33.10
2018-06-11T14:31:26.456Z,33.00
2018-06-11T14:36:29.086Z,33.10
2018-06-11T14:38:57.182Z,33.10
2018-06-11T14:41:25.276Z,32.80
2018-06-11T14:43:53.407Z,32.70
2018-06-11T14:46:21.739Z,32.50
2018-06-11T14:48:49.863Z,32.50
2018-06-11T14:51:18.012Z,32.40
2018-06-11T14:53:46.136Z,32.20
2018-06-11T14:56:14.275Z,32.10
2018-06-11T14:58:42.417Z,32.00
2018-06-11T15:01:10.569Z,31.90
2018-06-11T15:03:38.815Z,31.70
2018-06-11T15:06:07.692Z,31.60
2018-06-11T15:08:35.863Z,31.60
2018-06-11T15:11:03.994Z,31.60
2018-06-11T15:13:32.174Z,31.30
2018-06-11T15:16:00.314Z,31.20
2018-06-11T15:18:28.448Z,31.20
2018-06-11T15:20:56.588Z,31.30
2018-06-11T15:23:24.749Z,31.20
2018-06-11T15:25:52.848Z,31.00
2018-06-11T15:28:20.987Z,31.10
2018-06-11T15:30:49.128Z,31.20
2018-06-11T15:33:17.250Z,31.20
2018-06-11T15:35:45.379Z,31.20
2018-06-11T15:38:13.512Z,31.00
2018-06-11T15:40:41.657Z,31.00
2018-06-11T15:43:09.757Z,31.10
2018-06-11T15:45:37.839Z,31.20
2018-06-11T15:48:05.935Z,31.20
2018-06-11T15:50:34.007Z,30.90
2018-06-11T15:53:02.088Z,30.80
2018-06-11T15:55:30.147Z,30.60
2018-06-11T15:57:58.240Z,30.60
2018-06-11T16:00:26.362Z,30.70
2018-06-11T16:02:54.578Z,30.70
2018-06-11T16:05:22.657Z,30.80
2018-06-11T16:07:50.731Z,30.60
2018-06-11T16:10:18.812Z,30.50
2018-06-11T16:12:46.896Z,30.50
2018-06-11T16:15:14.980Z,30.40
2018-06-11T16:17:43.078Z,30.40
2018-06-11T16:20:11.170Z,30.50
2018-06-11T16:22:40.228Z,30.50
2018-06-11T16:25:08.302Z,30.40
2018-06-11T16:27:36.395Z,30.40
2018-06-11T16:30:04.516Z,30.40
2018-06-11T16:32:32.614Z,30.20
2018-06-11T16:35:00.672Z,30.00
2018-06-11T16:37:28.776Z,30.00
2018-06-11T16:39:56.868Z,30.00
2018-06-11T16:42:24.999Z,29.80
2018-06-11T16:44:53.111Z,29.70
2018-06-11T16:47:21.260Z,29.80
2018-06-11T16:49:49.402Z,29.70
2018-06-11T16:52:17.520Z,29.70
2018-06-11T16:54:45.676Z,29.70
2018-06-11T16:57:13.796Z,29.90
2018-06-11T16:59:41.939Z,29.80
2018-06-11T17:02:10.052Z,29.80
2018-06-11T17:04:38.188Z,29.70
2018-06-11T17:07:06.347Z,29.70
2018-06-11T17:09:34.495Z,29.70
2018-06-11T17:12:02.628Z,29.50
2018-06-11T17:14:30.776Z,29.40
2018-06-11T17:16:58.892Z,29.10
2018-06-11T17:19:27.036Z,29.10
2018-06-11T17:21:55.198Z,29.00
2018-06-11T17:24:23.380Z,28.90
2018-06-11T17:26:51.520Z,28.80
2018-06-11T17:31:47.554Z,28.80
2018-06-11T17:34:15.669Z,28.60
2018-06-11T17:36:43.804Z,28.60
2018-06-11T17:39:11.944Z,28.60
2018-06-11T17:41:40.560Z,28.30
2018-06-11T17:44:08.730Z,28.40
2018-06-11T17:46:37.098Z,28.50
2018-06-11T17:49:05.206Z,28.40
2018-06-11T17:51:33.392Z,28.30
2018-06-11T17:54:01.489Z,28.40
2018-06-11T17:56:29.592Z,28.60
2018-06-11T17:58:57.730Z,28.60
2018-06-11T18:01:25.852Z,28.50
2018-06-11T18:03:53.985Z,28.40
2018-06-11T18:06:22.177Z,28.40
2018-06-11T18:08:50.313Z,28.60
2018-06-11T18:11:18.538Z,28.60
2018-06-11T18:13:46.680Z,28.40
2018-06-11T18:16:14.820Z,28.50
2018-06-11T18:18:42.948Z,28.60
2018-06-11T18:21:11.069Z,28.50
2018-06-11T18:23:39.175Z,28.60
2018-06-11T18:26:07.306Z,28.40
2018-06-11T18:28:35.485Z,28.30
2018-06-11T18:31:03.649Z,28.00
2018-06-11T18:33:31.776Z,28.10
2018-06-11T18:35:59.915Z,27.90
2018-06-11T18:38:28.032Z,27.80
2018-06-11T18:40:56.159Z,27.70
2018-06-11T18:43:29.967Z,27.70
2018-06-11T18:45:58.094Z,27.60
2018-06-11T18:48:26.220Z,27.30
2018-06-11T18:50:54.335Z,27.40
2018-06-11T18:53:22.500Z,27.20
2018-06-11T18:55:50.624Z,27.20
2018-06-11T18:58:18.760Z,27.10
2018-06-11T19:00:46.907Z,27.30
2018-06-11T19:03:15.036Z,27.20
2018-06-11T19:05:43.311Z,27.10
2018-06-11T19:10:40.071Z,26.90
2018-06-11T19:13:08.286Z,26.70
2018-06-11T19:15:36.512Z,26.80
2018-06-11T19:18:04.866Z,26.90
2018-06-11T19:20:32.970Z,26.60
2018-06-11T19:23:01.095Z,26.50
2018-06-11T19:25:29.211Z,26.60
2018-06-11T19:27:57.355Z,26.60
2018-06-11T19:30:25.478Z,26.50
2018-06-11T19:32:53.725Z,26.60
2018-06-11T19:35:21.961Z,26.50
2018-06-11T19:37:50.010Z,26.40
2018-06-11T19:40:18.133Z,26.30
2018-06-11T19:42:46.331Z,26.30
2018-06-11T19:45:14.518Z,26.20
2018-06-11T19:47:42.701Z,26.20
2018-06-11T19:50:10.906Z,26.10
2018-06-11T19:52:38.908Z,26.10
2018-06-11T19:55:07.123Z,26.20
2018-06-11T19:57:35.273Z,26.00
2018-06-11T20:00:03.695Z,26.00
2018-06-11T20:02:31.851Z,26.00
2018-06-11T20:05:00.020Z,25.80
2018-06-11T20:07:28.153Z,25.70
2018-06-11T20:09:56.308Z,25.70
2018-06-11T20:12:24.427Z,25.80
2018-06-11T20:17:20.451Z,25.80
2018-06-11T20:19:48.572Z,25.70
2018-06-11T20:22:16.717Z,25.70
2018-06-11T20:24:44.848Z,25.70
2018-06-11T20:27:13.015Z,25.60
2018-06-11T20:29:41.107Z,25.50
2018-06-11T20:32:09.266Z,25.40
2018-06-11T20:34:37.372Z,25.40
2018-06-11T20:37:05.501Z,25.40
2018-06-11T20:39:33.641Z,25.20
2018-06-11T20:42:02.272Z,25.20
2018-06-11T20:44:30.392Z,25.30
2018-06-11T20:46:58.534Z,25.20
2018-06-11T20:49:26.644Z,25.10
2018-06-11T20:51:54.781Z,25.00
2018-06-11T20:54:22.967Z,25.10
2018-06-11T20:56:51.089Z,25.10
2018-06-11T20:59:19.241Z,25.10
2018-06-11T21:01:47.371Z,24.90
2018-06-11T21:04:16.057Z,24.80
2018-06-11T21:06:44.990Z,24.80
2018-06-11T21:09:13.105Z,24.90
2018-06-11T21:11:42.139Z,24.90
2018-06-11T21:14:10.282Z,24.90
2018-06-11T21:16:38.420Z,24.80
2018-06-11T21:19:06.575Z,24.90
2018-06-11T21:21:34.760Z,24.90
2018-06-11T21:24:02.925Z,24.80
2018-06-11T21:26:31.006Z,24.80
2018-06-11T21:28:59.149Z,24.80
2018-06-11T21:31:27.279Z,24.70
2018-06-11T21:33:55.386Z,24.70
2018-06-11T21:36:23.504Z,24.60
2018-06-11T21:38:51.657Z,24.60
2018-06-11T21:41:19.784Z,24.70
2018-06-11T21:43:47.940Z,24.60
2018-06-11T21:46:16.065Z,24.50
2018-06-11T21:48:44.196Z,24.60
2018-06-11T21:51:13.138Z,24.50
2018-06-11T21:53:41.322Z,24.30
2018-06-11T21:56:09.484Z,24.30
2018-06-11T21:58:37.625Z,24.30
2018-06-11T22:01:05.747Z,24.30
2018-06-11T22:03:33.945Z,24.10
2018-06-11T22:06:02.033Z,24.10
2018-06-11T22:08:30.286Z,24.00
2018-06-11T22:10:58.502Z,24.10
2018-06-11T22:13:26.563Z,24.10
2018-06-11T22:15:54.751Z,24.20
2018-06-11T22:18:22.876Z,24.00
2018-06-11T22:20:51.019Z,24.10
2018-06-11T22:23:19.162Z,24.00
2018-06-11T22:25:47.290Z,23.90
2018-06-11T22:28:15.433Z,23.70
2018-06-11T22:30:43.574Z,23.70
2018-06-11T22:33:11.707Z,23.70
2018-06-11T22:35:40.344Z,23.80
2018-06-11T22:38:08.469Z,23.80
2018-06-11T22:40:36.636Z,23.70
2018-06-11T22:43:04.772Z,23.60
2018-06-11T22:45:32.864Z,23.50
2018-06-11T22:48:00.942Z,23.40
2018-06-11T22:50:29.039Z,23.50
2018-06-11T22:52:57.111Z,23.50
2018-06-11T22:55:25.206Z,23.20
2018-06-11T22:57:53.304Z,23.30
2018-06-11T23:00:27.509Z,23.30
2018-06-11T23:02:55.706Z,23.30
2018-06-11T23:05:23.792Z,23.20
2018-06-11T23:07:52.229Z,23.30
2018-06-11T23:10:20.302Z,23.20
2018-06-11T23:12:48.399Z,23.10
2018-06-11T23:15:16.510Z,22.90
2018-06-11T23:17:44.573Z,22.50
2018-06-11T23:20:12.695Z,22.70
2018-06-11T23:22:41.129Z,22.90
2018-06-11T23:25:09.269Z,22.90
2018-06-11T23:27:37.353Z,22.70
2018-06-11T23:30:05.521Z,22.70
2018-06-11T23:32:33.582Z,22.60
2018-06-11T23:35:01.677Z,22.60
2018-06-11T23:37:29.759Z,22.70
2018-06-11T23:39:57.839Z,22.60
2018-06-11T23:42:25.930Z,22.60
2018-06-11T23:44:54.030Z,22.70
2018-06-11T23:47:22.103Z,22.70
2018-06-11T23:49:50.346Z,22.70
2018-06-11T23:52:18.419Z,22.80
2018-06-11T23:54:46.513Z,22.60
2018-06-11T23:57:14.588Z,22.50
2018-06-11T23:59:42.662Z,22.40
